Time;durP1;ratioP1;P1;durP2;ratioP2;P2;SDS_P1;SDS_P2;PMS_P1;PMS_P2;Temp;Humidity;BMP_temperature;BMP_pressure;BME280_temperature;BME280_humidity;BME280_pressure;Samples;Min_cycle;Max_cycle;Signal;HPM_P1;HPM_P2
2021/03/05 00:02:54;;;;;;;;;;;3.50;99.90;;;;;;10603934;28;19927;-87
2021/03/05 00:08:07;;;;;;;;;;;4.10;99.90;;;;;;10605988;28;19931;-87
2021/03/05 00:13:09;;;;;;;;;;;3.40;99.90;;;;;;10603320;28;19984;-87
2021/03/05 00:18:10;;;;;;;;;;;4.20;99.90;;;;;;10603484;28;20289;-87
2021/03/05 00:23:12;;;;;;;;;;;3.50;99.90;;;;;;10604164;28;19923;-87
2021/03/05 00:28:13;;;;;;;;;;;5.00;99.90;;;;;;10603897;28;19933;-87
2021/03/05 00:33:15;;;;;;;;;;;4.30;99.90;;;;;;10603987;28;19930;-87
2021/03/05 00:38:31;;;;;;;;;;;3.50;99.90;;;;;;10605553;28;19928;-87
2021/03/05 00:43:33;;;;;;;;;;;3.50;99.90;;;;;;10620673;28;19924;-86
2021/03/05 00:48:34;;;;;;;;;;;3.50;99.90;;;;;;10602388;28;20317;-87
2021/03/05 00:53:35;;;;;;;;;;;4.80;99.90;;;;;;10622185;28;19930;-87
2021/03/05 00:58:37;;;;;;;;;;;2.60;99.90;;;;;;10586392;27;20022;-87
2021/03/05 01:03:38;;;;;;;;;;;3.30;99.90;;;;;;10627244;27;19949;-87
2021/03/05 01:08:48;;;;;;;;;;;3.30;99.90;;;;;;10627483;27;19923;-87
2021/03/05 01:13:50;;;;;;;;;;;3.50;99.90;;;;;;10610460;27;19927;-87
2021/03/05 01:18:51;;;;;;;;;;;3.10;99.90;;;;;;10626775;27;20274;-87
2021/03/05 01:23:53;;;;;;;;;;;4.00;99.90;;;;;;10609571;27;20289;-87
2021/03/05 01:28:54;;;;;;;;;;;2.90;99.90;;;;;;10609349;27;19928;-87
2021/03/05 01:33:56;;;;;;;;;;;2.70;99.90;;;;;;10609696;27;19930;-87
2021/03/05 01:39:09;;;;;;;;;;;3.50;99.90;;;;;;10611306;27;19924;-87
2021/03/05 01:44:12;;;;;;;;;;;2.50;99.90;;;;;;10609413;27;19931;-87
2021/03/05 01:49:13;;;;;;;;;;;2.40;99.90;;;;;;10607455;27;20300;-87
2021/03/05 01:54:15;;;;;;;;;;;2.20;99.90;;;;;;10625996;27;19977;-87
2021/03/05 01:59:20;;;;;;;;;;;2.10;99.90;;;;;;10625341;27;19923;-87
2021/03/05 02:04:21;;;;;;;;;;;2.00;99.90;;;;;;10608441;27;19934;-87
2021/03/05 02:09:35;;;;;;;;;;;3.50;99.90;;;;;;10626221;27;19931;-87
2021/03/05 02:14:37;;;;;;;;;;;1.80;99.90;;;;;;10607553;27;20378;-87
2021/03/05 02:19:48;;;;;;;;;;;1.60;99.90;;;;;;10606836;27;19931;-87
2021/03/05 02:24:53;;;;;;;;;;;2.90;99.90;;;;;;10607337;27;20444;-87
2021/03/05 02:30:13;;;;;;;;;;;1.60;99.90;;;;;;10606987;27;19924;-87
2021/03/05 02:35:15;;;;;;;;;;;1.50;99.90;;;;;;10606642;27;20390;-87
2021/03/05 02:40:18;;;;;;;;;;;2.30;99.90;;;;;;10605925;27;20289;-87
2021/03/05 02:45:30;;;;;;;;;;;1.30;99.90;;;;;;10606521;27;19933;-87
2021/03/05 02:50:33;;;;;;;;;;;1.20;99.90;;;;;;10606077;27;19934;-87
2021/03/05 02:55:35;;;;;;;;;;;1.00;99.90;;;;;;10624163;27;20385;-87
2021/03/05 03:00:37;;;;;;;;;;;1.00;99.90;;;;;;10624001;27;19927;-87
2021/03/05 03:05:39;;;;;;;;;;;1.00;99.90;;;;;;10605855;27;20266;-88
2021/03/05 03:10:40;;;;;;;;;;;0.90;99.90;;;;;;10606063;27;19924;-87
2021/03/05 03:15:42;;;;;;;;;;;0.80;99.90;;;;;;10604759;27;19932;-87
2021/03/05 03:20:43;;;;;;;;;;;0.80;99.90;;;;;;10588617;27;19923;-87
2021/03/05 03:25:45;;;;;;;;;;;0.70;99.90;;;;;;10622631;27;19969;-87
2021/03/05 03:30:46;;;;;;;;;;;0.60;99.90;;;;;;10605186;27;19924;-87
2021/03/05 03:35:48;;;;;;;;;;;0.50;99.90;;;;;;10604914;27;19923;-87
2021/03/05 03:40:49;;;;;;;;;;;0.40;99.90;;;;;;10604306;27;19955;-87
2021/03/05 03:45:51;;;;;;;;;;;0.40;99.90;;;;;;10604717;27;19923;-87
2021/03/05 03:50:57;;;;;;;;;;;0.40;99.90;;;;;;10604347;28;20003;-87
2021/03/05 03:55:58;;;;;;;;;;;0.30;99.90;;;;;;10604732;28;20022;-87
2021/03/05 04:01:02;;;;;;;;;;;0.30;99.90;;;;;;10604126;28;19972;-87
2021/03/05 04:06:06;;;;;;;;;;;0.30;99.90;;;;;;10604361;28;19923;-87
2021/03/05 04:11:09;;;;;;;;;;;0.20;99.90;;;;;;10621977;28;19928;-86
2021/03/05 04:16:10;;;;;;;;;;;0.00;99.90;;;;;;10622474;28;19988;-86
2021/03/05 04:21:22;;;;;;;;;;;-0.10;99.90;;;;;;10604229;28;19923;-86
2021/03/05 04:26:24;;;;;;;;;;;-0.10;99.90;;;;;;10604042;28;19924;-86
2021/03/05 04:31:25;;;;;;;;;;;-0.20;99.90;;;;;;10603502;28;19930;-85
2021/03/05 04:36:27;;;;;;;;;;;-0.20;99.90;;;;;;10607892;27;20385;-85
2021/03/05 04:41:36;;;;;;;;;;;-0.20;99.90;;;;;;10613046;27;19923;-85
2021/03/05 04:46:37;;;;;;;;;;;0.80;99.90;;;;;;10611403;27;19928;-86
2021/03/05 04:51:39;;;;;;;;;;;-0.50;99.90;;;;;;10627754;27;19927;-86
2021/03/05 04:56:40;;;;;;;;;;;0.80;99.90;;;;;;10610292;27;20366;-86
2021/03/05 05:01:41;;;;;;;;;;;-0.30;99.90;;;;;;10610645;27;19938;-86
2021/03/05 05:06:42;;;;;;;;;;;1.00;99.90;;;;;;10610766;27;19924;-86
2021/03/05 05:11:51;;;;;;;;;;;-0.60;99.90;;;;;;10611934;27;19934;-86
2021/03/05 05:16:53;;;;;;;;;;;0.00;99.90;;;;;;10609605;27;20290;-86
2021/03/05 05:21:54;;;;;;;;;;;-0.60;99.90;;;;;;10593438;27;19934;-86
2021/03/05 05:26:56;;;;;;;;;;;-0.60;99.90;;;;;;10609659;27;20022;-87
2021/03/05 05:31:57;;;;;;;;;;;-0.60;99.90;;;;;;10592374;27;20273;-87
2021/03/05 05:36:59;;;;;;;;;;;-0.80;99.90;;;;;;10608713;27;19972;-87
2021/03/05 05:42:15;;;;;;;;;;;0.80;99.90;;;;;;10627301;27;19923;-87
2021/03/05 05:47:16;;;;;;;;;;;0.90;99.90;;;;;;10615857;22;19914;-84
2021/03/05 05:52:25;;;;;;;;;;;-0.80;99.90;;;;;;10498879;28;20322;-84
2021/03/05 05:57:27;;;;;;;;;;;-0.90;99.90;;;;;;10498171;28;19928;-84
2021/03/05 06:02:29;;;;;;;;;;;-0.90;99.90;;;;;;10498650;28;19935;-84
2021/03/05 06:07:31;;;;;;;;;;;-0.90;99.90;;;;;;10497862;28;20379;-84
2021/03/05 06:12:40;;;;;;;;;;;-0.90;99.90;;;;;;10500313;28;19928;-84
2021/03/05 06:17:45;;;;;;;;;;;-0.40;99.90;;;;;;10500574;28;19935;-84
2021/03/05 06:23:10;;;;;;;;;;;-1.00;99.90;;;;;;10499068;28;19932;-84
2021/03/05 06:28:12;;;;;;;;;;;-0.90;99.90;;;;;;10496996;28;20063;-84
2021/03/05 06:33:23;;;;;;;;;;;-0.80;99.90;;;;;;10498172;28;20295;-84
2021/03/05 06:38:42;;;;;;;;;;;-0.80;99.90;;;;;;10498975;28;20015;-85
2021/03/05 06:43:47;;;;;;;;;;;-0.80;99.90;;;;;;10497634;28;19924;-84
2021/03/05 06:48:52;;;;;;;;;;;-0.90;99.90;;;;;;10480411;28;19948;-84
2021/03/05 06:54:01;;;;;;;;;;;-0.70;99.90;;;;;;10497768;28;19926;-84
2021/03/05 06:59:06;;;;;;;;;;;0.10;99.90;;;;;;10496939;28;19924;-84
2021/03/05 07:04:09;;;;;;;;;;;2.60;99.90;;;;;;10497891;28;19924;-84
2021/03/05 07:09:20;;;;;;;;;;;3.30;99.90;;;;;;10517753;28;19924;-84
2021/03/05 07:14:26;;;;;;;;;;;3.40;99.90;;;;;;10554765;28;20295;-84
2021/03/05 07:19:28;;;;;;;;;;;2.60;99.90;;;;;;10538798;28;19924;-85
2021/03/05 07:24:31;;;;;;;;;;;3.10;99.90;;;;;;10554946;28;19931;-85
2021/03/05 07:29:33;;;;;;;;;;;3.40;99.90;;;;;;10554591;28;19930;-85
2021/03/05 07:34:37;;;;;;;;;;;4.00;99.90;;;;;;10521255;28;19977;-85
2021/03/05 07:39:39;;;;;;;;;;;5.00;99.90;;;;;;10520957;28;19934;-85
2021/03/05 07:44:41;;;;;;;;;;;5.50;99.90;;;;;;10520453;28;20031;-85
2021/03/05 07:49:42;;;;;;;;;;;4.30;99.90;;;;;;10536778;28;20255;-85
2021/03/05 07:54:44;;;;;;;;;;;4.80;99.90;;;;;;10520820;28;19970;-85
2021/03/05 07:59:47;;;;;;;;;;;7.00;99.90;;;;;;10515552;28;19928;-85
2021/03/05 08:04:48;;;;;;;;;;;5.70;99.90;;;;;;10520539;28;20018;-85
2021/03/05 08:09:50;;;;;;;;;;;8.20;99.90;;;;;;10523584;28;20378;-85
2021/03/05 08:14:51;;;;;;;;;;;6.50;99.90;;;;;;10546918;28;19930;-85
2021/03/05 08:19:52;;;;;;;;;;;;;;;;;;10528408;28;19928;-85
2021/03/05 08:24:54;;;;;;;;;;;;;;;;;;10545918;28;19928;-85
2021/03/05 08:29:58;;;;;;;;;;;;;;;;;;10546285;28;19925;-85
2021/03/05 08:35:05;;;;;;;;;;;7.30;98.60;;;;;;10528138;28;20010;-84
2021/03/05 08:40:09;;;;;;;;;;;7.70;95.30;;;;;;10527091;28;19931;-85
2021/03/05 08:45:11;;;;;;;;;;;7.40;94.00;;;;;;10526691;28;20290;-85
2021/03/05 08:50:13;;;;;;;;;;;8.30;93.90;;;;;;10526468;28;20301;-85
2021/03/05 08:55:15;;;;;;;;;;;11.60;82.90;;;;;;10526850;28;19932;-85
2021/03/05 09:00:17;;;;;;;;;;;13.20;73.80;;;;;;10527267;28;20019;-85
2021/03/05 09:05:26;;;;;;;;;;;13.30;63.20;;;;;;10526883;28;19924;-85
2021/03/05 09:10:46;;;;;;;;;;;11.20;68.30;;;;;;10526119;28;20461;-85
2021/03/05 09:15:54;;;;;;;;;;;8.80;71.80;;;;;;10526019;28;19979;-85
2021/03/05 09:20:57;;;;;;;;;;;8.70;82.60;;;;;;10543292;28;19931;-85
2021/03/05 09:26:04;;;;;;;;;;;9.40;84.40;;;;;;10543564;28;19924;-85
2021/03/05 09:31:07;;;;;;;;;;;8.30;70.20;;;;;;10521421;28;19971;-85
2021/03/05 09:36:09;;;;;;;;;;;7.40;77.20;;;;;;10543303;28;19971;-85
2021/03/05 09:41:16;;;;;;;;;;;8.60;80.20;;;;;;10525200;28;19924;-85
2021/03/05 09:46:21;;;;;;;;;;;8.70;77.80;;;;;;10542761;28;19968;-85
2021/03/05 09:51:24;;;;;;;;;;;9.10;71.00;;;;;;10502848;28;19932;-85
2021/03/05 09:56:26;;;;;;;;;;;11.20;70.50;;;;;;10483021;28;19931;-85
2021/03/05 10:01:28;;;;;;;;;;;9.50;66.10;;;;;;10499434;28;19958;-85
2021/03/05 10:06:31;;;;;;;;;;;9.40;65.10;;;;;;10481610;28;19935;-85
2021/03/05 10:11:37;;;;;;;;;;;10.20;65.20;;;;;;10482272;28;20015;-85
2021/03/05 10:16:39;;;;;;;;;;;9.70;62.40;;;;;;10481105;28;20007;-85
2021/03/05 10:21:43;;;;;;;;;;;9.80;61.80;;;;;;10481513;28;19932;-86
2021/03/05 10:27:19;;;;;;;;;;;10.80;63.90;;;;;;10499326;28;19974;-86
2021/03/05 10:32:22;;;;;;;;;;;10.20;64.50;;;;;;10498700;28;19924;-86
2021/03/05 10:37:24;;;;;;;;;;;9.90;59.00;;;;;;10499110;28;19924;-85
2021/03/05 10:42:27;;;;;;;;;;;9.70;61.70;;;;;;10480982;28;19959;-85
2021/03/05 10:47:32;;;;;;;;;;;9.40;58.90;;;;;;10498181;28;19931;-86
2021/03/05 10:52:33;;;;;;;;;;;10.10;56.80;;;;;;10480192;28;20019;-86
2021/03/05 10:57:36;;;;;;;;;;;9.60;59.20;;;;;;10497219;28;20418;-85
2021/03/05 11:02:38;;;;;;;;;;;9.90;57.60;;;;;;10496891;28;19931;-85
2021/03/05 11:07:39;;;;;;;;;;;9.90;57.60;;;;;;10497892;28;19946;-85
2021/03/05 11:12:41;;;;;;;;;;;9.50;55.50;;;;;;10479913;28;19936;-85
2021/03/05 11:17:43;;;;;;;;;;;10.50;57.90;;;;;;10479719;28;19925;-85
2021/03/05 11:22:45;;;;;;;;;;;9.40;53.00;;;;;;10479746;28;19925;-86
2021/03/05 11:27:47;;;;;;;;;;;9.60;55.10;;;;;;10479321;28;20022;-85
2021/03/05 11:32:48;;;;;;;;;;;10.80;58.40;;;;;;10478830;28;19928;-85
2021/03/05 11:37:50;;;;;;;;;;;9.30;54.40;;;;;;10479399;28;19928;-85
2021/03/05 11:42:51;;;;;;;;;;;10.30;56.30;;;;;;10482969;28;19928;-85
2021/03/05 11:47:52;;;;;;;;;;;9.80;57.20;;;;;;10482087;22;19929;-87
2021/03/05 11:52:54;;;;;;;;;;;9.60;54.60;;;;;;10490210;28;20008;-87
2021/03/05 11:57:55;;;;;;;;;;;10.00;54.40;;;;;;10479463;28;20015;-87
2021/03/05 12:02:56;;;;;;;;;;;9.60;53.00;;;;;;10479211;28;19928;-87
2021/03/05 12:07:57;;;;;;;;;;;9.60;49.50;;;;;;10479220;28;19934;-87
2021/03/05 12:12:59;;;;;;;;;;;9.10;48.60;;;;;;10511979;28;20294;-87
2021/03/05 12:18:00;;;;;;;;;;;9.20;55.10;;;;;;10497063;28;19955;-87
2021/03/05 12:23:01;;;;;;;;;;;8.40;50.30;;;;;;10462551;28;19924;-86
2021/03/05 12:28:03;;;;;;;;;;;8.70;51.50;;;;;;10496260;28;20013;-87
2021/03/05 12:33:04;;;;;;;;;;;8.30;52.40;;;;;;10476225;28;20010;-87
2021/03/05 12:38:06;;;;;;;;;;;8.30;53.60;;;;;;10511559;28;19924;-87
2021/03/05 12:43:07;;;;;;;;;;;8.60;55.50;;;;;;10478252;28;20023;-87
2021/03/05 12:48:09;;;;;;;;;;;9.30;57.90;;;;;;10470111;28;19928;-86
2021/03/05 12:53:11;;;;;;;;;;;8.30;55.80;;;;;;10510795;28;19964;-87
2021/03/05 12:58:13;;;;;;;;;;;9.60;59.20;;;;;;10516646;28;19929;-86
2021/03/05 13:03:14;;;;;;;;;;;7.90;58.70;;;;;;10501564;28;20360;-86
2021/03/05 13:08:16;;;;;;;;;;;8.50;61.00;;;;;;10501870;28;19925;-86
2021/03/05 13:13:17;;;;;;;;;;;9.40;62.80;;;;;;10484441;28;19928;-86
2021/03/05 13:18:19;;;;;;;;;;;9.00;63.40;;;;;;10484108;28;20006;-87
2021/03/05 13:23:21;;;;;;;;;;;8.60;67.40;;;;;;10500548;28;20272;-87
2021/03/05 13:28:23;;;;;;;;;;;8.30;52.90;;;;;;10501002;28;19932;-86
2021/03/05 13:33:24;;;;;;;;;;;8.10;54.40;;;;;;10500847;28;20019;-86
2021/03/05 13:38:28;;;;;;;;;;;8.60;57.40;;;;;;10508569;28;19925;-86
2021/03/05 13:43:29;;;;;;;;;;;8.40;57.00;;;;;;10475516;28;19933;-86
2021/03/05 13:48:30;;;;;;;;;;;9.30;57.20;;;;;;10458506;28;19958;-86
2021/03/05 13:53:32;;;;;;;;;;;7.80;54.70;;;;;;10477994;28;19931;-86
2021/03/05 13:58:33;;;;;;;;;;;8.40;52.40;;;;;;10516343;28;19951;-86
2021/03/05 14:03:35;;;;;;;;;;;8.90;56.90;;;;;;10465729;28;19925;-86
2021/03/05 14:08:37;;;;;;;;;;;8.40;55.80;;;;;;10457576;28;19951;-86
2021/03/05 14:13:39;;;;;;;;;;;9.90;57.30;;;;;;10457930;28;19925;-86
2021/03/05 14:18:48;;;;;;;;;;;8.10;56.70;;;;;;10459115;28;19932;-86
2021/03/05 14:23:50;;;;;;;;;;;8.60;60.00;;;;;;10478934;28;20031;-86
2021/03/05 14:28:51;;;;;;;;;;;8.20;58.80;;;;;;10497583;28;19928;-86
2021/03/05 14:33:52;;;;;;;;;;;8.00;55.40;;;;;;10497929;28;20367;-86
2021/03/05 14:38:54;;;;;;;;;;;9.20;57.50;;;;;;10499050;28;19924;-86
2021/03/05 14:43:55;;;;;;;;;;;7.90;58.00;;;;;;10481339;28;19932;-86
2021/03/05 14:49:09;;;;;;;;;;;9.30;58.00;;;;;;10497459;28;19951;-86
2021/03/05 14:54:10;;;;;;;;;;;8.50;58.50;;;;;;10497213;28;20360;-86
2021/03/05 14:59:11;;;;;;;;;;;7.40;62.70;;;;;;10497826;28;19977;-86
2021/03/05 15:04:13;;;;;;;;;;;7.10;54.90;;;;;;10496621;28;19934;-86
2021/03/05 15:09:14;;;;;;;;;;;7.10;55.20;;;;;;10497944;28;19924;-86
2021/03/05 15:14:15;;;;;;;;;;;7.20;54.10;;;;;;10479717;28;20398;-86
2021/03/05 15:19:32;;;;;;;;;;;7.00;54.60;;;;;;10497516;28;19924;-86
2021/03/05 15:24:34;;;;;;;;;;;7.00;56.70;;;;;;10481142;28;19978;-86
2021/03/05 15:29:35;;;;;;;;;;;7.00;56.90;;;;;;10499174;28;19974;-86
2021/03/05 15:34:37;;;;;;;;;;;6.70;55.60;;;;;;10496261;28;19958;-86
2021/03/05 15:39:39;;;;;;;;;;;6.80;58.30;;;;;;10496244;28;19959;-86
2021/03/05 15:44:41;;;;;;;;;;;6.60;57.80;;;;;;10528805;28;20118;-86
2021/03/05 15:49:57;;;;;;;;;;;7.30;59.30;;;;;;10530432;28;19935;-86
2021/03/05 15:54:59;;;;;;;;;;;7.90;60.10;;;;;;10538684;28;20397;-86
2021/03/05 16:00:00;;;;;;;;;;;6.20;61.70;;;;;;10538936;28;20286;-86
2021/03/05 16:05:04;;;;;;;;;;;6.30;63.60;;;;;;10538936;28;19924;-86
2021/03/05 16:10:07;;;;;;;;;;;6.10;64.10;;;;;;10520596;28;20263;-86
2021/03/05 16:15:08;;;;;;;;;;;6.10;69.00;;;;;;10539050;28;19928;-86
2021/03/05 16:20:21;;;;;;;;;;;5.90;66.80;;;;;;10521779;28;19935;-86
2021/03/05 16:25:22;;;;;;;;;;;5.80;73.30;;;;;;10504464;28;20015;-86
2021/03/05 16:30:24;;;;;;;;;;;5.80;67.70;;;;;;10506244;28;19924;-86
2021/03/05 16:35:27;;;;;;;;;;;5.60;70.40;;;;;;10528494;28;19946;-86
2021/03/05 16:40:29;;;;;;;;;;;6.40;71.40;;;;;;10528109;28;20272;-86
2021/03/05 16:45:31;;;;;;;;;;;5.50;71.50;;;;;;10511756;28;20371;-86
2021/03/05 16:50:42;;;;;;;;;;;6.80;78.40;;;;;;10528763;28;19951;-86
2021/03/05 16:55:43;;;;;;;;;;;5.00;78.70;;;;;;10544607;28;20366;-89
2021/03/05 17:00:45;;;;;;;;;;;6.50;81.40;;;;;;10509914;28;19931;-88
2021/03/05 17:05:46;;;;;;;;;;;5.30;89.30;;;;;;10525737;28;19946;-89
2021/03/05 17:10:47;;;;;;;;;;;6.10;91.00;;;;;;10543455;28;19974;-89
2021/03/05 17:15:49;;;;;;;;;;;5.10;92.50;;;;;;10526779;28;20436;-89
2021/03/05 17:21:03;;;;;;;;;;;4.30;92.50;;;;;;10557558;28;19932;-88
2021/03/05 17:26:04;;;;;;;;;;;4.10;92.50;;;;;;10543250;28;20264;-89
2021/03/05 17:31:06;;;;;;;;;;;4.00;96.10;;;;;;10509320;28;19934;-89
2021/03/05 17:36:07;;;;;;;;;;;3.70;94.60;;;;;;10543696;28;20278;-88
2021/03/05 17:41:08;;;;;;;;;;;3.50;98.50;;;;;;10542574;28;19932;-89
2021/03/05 17:46:10;;;;;;;;;;;3.40;97.80;;;;;;10525165;28;19928;-89
2021/03/05 17:51:25;;;;;;;;;;;3.30;97.70;;;;;;10534933;22;19935;-87
2021/03/05 17:56:26;;;;;;;;;;;2.90;99.10;;;;;;10542837;28;19966;-87
2021/03/05 18:01:33;;;;;;;;;;;3.10;99.90;;;;;;10527567;28;19928;-87
2021/03/05 18:06:34;;;;;;;;;;;2.50;99.90;;;;;;10534031;28;19932;-88
2021/03/05 18:11:36;;;;;;;;;;;2.30;99.90;;;;;;10524426;28;19925;-88
2021/03/05 18:16:54;;;;;;;;;;;3.90;99.90;;;;;;10541315;28;19970;-87
2021/03/05 18:21:55;;;;;;;;;;;2.20;99.90;;;;;;10523778;28;19924;-88
2021/03/05 18:26:56;;;;;;;;;;;2.30;99.90;;;;;;10540851;28;19934;-86
2021/03/05 18:31:58;;;;;;;;;;;1.90;99.90;;;;;;10541087;28;19930;-87
2021/03/05 18:37:00;;;;;;;;;;;1.80;99.90;;;;;;10492157;28;20500;-87
2021/03/05 18:42:02;;;;;;;;;;;1.70;99.90;;;;;;10505765;28;19924;-87
2021/03/05 18:47:03;;;;;;;;;;;1.80;99.90;;;;;;10505380;28;20286;-87
2021/03/05 18:52:10;;;;;;;;;;;1.60;99.90;;;;;;10509246;28;19986;-87
2021/03/05 18:57:11;;;;;;;;;;;1.60;99.90;;;;;;10505468;28;19924;-87
2021/03/05 19:02:12;;;;;;;;;;;1.60;99.90;;;;;;10504445;28;19924;-87
2021/03/05 19:07:14;;;;;;;;;;;1.60;99.90;;;;;;10489013;28;20345;-87
2021/03/05 19:12:15;;;;;;;;;;;1.40;99.90;;;;;;10497852;28;19931;-86
2021/03/05 19:17:17;;;;;;;;;;;1.30;99.90;;;;;;10463739;28;19958;-86
2021/03/05 19:22:32;;;;;;;;;;;2.70;99.90;;;;;;10481547;28;20350;-87
2021/03/05 19:27:33;;;;;;;;;;;1.00;99.90;;;;;;10497270;28;19931;-86
2021/03/05 19:32:34;;;;;;;;;;;1.10;99.90;;;;;;10497388;28;19935;-87
2021/03/05 19:37:36;;;;;;;;;;;1.40;99.90;;;;;;10486110;28;19929;-86
2021/03/05 19:42:37;;;;;;;;;;;1.10;99.90;;;;;;10500112;28;19924;-86
2021/03/05 19:47:38;;;;;;;;;;;0.90;99.90;;;;;;10511128;28;19928;-86
2021/03/05 19:52:55;;;;;;;;;;;0.70;99.90;;;;;;10508408;28;19981;-86
2021/03/05 19:57:57;;;;;;;;;;;0.70;99.90;;;;;;10503586;28;19928;-86
2021/03/05 20:02:59;;;;;;;;;;;0.70;99.90;;;;;;10493705;28;19939;-86
2021/03/05 20:08:00;;;;;;;;;;;0.70;99.90;;;;;;10504224;28;19928;-86
2021/03/05 20:13:02;;;;;;;;;;;0.50;99.90;;;;;;10505639;28;19935;-86
2021/03/05 20:18:04;;;;;;;;;;;0.60;99.90;;;;;;10494613;28;19955;-86
2021/03/05 20:23:24;;;;;;;;;;;0.50;99.90;;;;;;10482447;28;20026;-86
2021/03/05 20:28:27;;;;;;;;;;;0.60;99.90;;;;;;10497640;28;19935;-86
2021/03/05 20:33:28;;;;;;;;;;;0.40;99.90;;;;;;10479251;28;19934;-86
2021/03/05 20:38:31;;;;;;;;;;;0.40;99.90;;;;;;10487203;28;19935;-85
2021/03/05 20:43:32;;;;;;;;;;;0.30;99.90;;;;;;10478963;28;19944;-86
2021/03/05 20:48:33;;;;;;;;;;;1.70;99.90;;;;;;10460972;28;20158;-86
2021/03/05 20:53:55;;;;;;;;;;;0.30;99.90;;;;;;10444176;28;19929;-86
2021/03/05 20:58:56;;;;;;;;;;;0.30;99.90;;;;;;10476837;28;19929;-86
2021/03/05 21:03:58;;;;;;;;;;;0.30;99.90;;;;;;10453081;28;19930;-86
2021/03/05 21:08:59;;;;;;;;;;;0.20;99.90;;;;;;10421653;28;20388;-86
2021/03/05 21:14:00;;;;;;;;;;;0.10;99.90;;;;;;10442595;28;20408;-86
2021/03/05 21:19:02;;;;;;;;;;;0.20;99.90;;;;;;10453318;28;19931;-86
2021/03/05 21:24:05;;;;;;;;;;;0.20;99.90;;;;;;10473298;28;19929;-86
2021/03/05 21:29:06;;;;;;;;;;;-0.10;99.90;;;;;;10428791;28;19932;-86
2021/03/05 21:34:08;;;;;;;;;;;0.00;99.90;;;;;;10484754;28;19929;-85
2021/03/05 21:39:09;;;;;;;;;;;0.00;99.90;;;;;;10486420;28;19984;-85
2021/03/05 21:44:10;;;;;;;;;;;-0.30;99.90;;;;;;10449908;28;19925;-85
2021/03/05 21:49:11;;;;;;;;;;;-0.10;99.90;;;;;;10454059;28;19929;-85
2021/03/05 21:54:29;;;;;;;;;;;0.70;99.90;;;;;;10488521;28;19928;-85
2021/03/05 21:59:30;;;;;;;;;;;-0.20;99.90;;;;;;10504271;28;20402;-85
2021/03/05 22:04:32;;;;;;;;;;;-0.30;99.90;;;;;;10483788;28;19931;-85
2021/03/05 22:09:48;;;;;;;;;;;0.30;99.90;;;;;;10484889;28;19982;-85
2021/03/05 22:14:50;;;;;;;;;;;0.80;99.90;;;;;;10482337;28;19999;-85
2021/03/05 22:19:51;;;;;;;;;;;-0.30;99.90;;;;;;10489985;28;19924;-85
2021/03/05 22:24:52;;;;;;;;;;;-0.40;99.90;;;;;;10501526;28;19929;-85
2021/03/05 22:29:54;;;;;;;;;;;-0.40;99.90;;;;;;10481421;28;19935;-85
2021/03/05 22:34:55;;;;;;;;;;;-0.50;99.90;;;;;;10480925;28;20260;-85
2021/03/05 22:39:56;;;;;;;;;;;-0.50;99.90;;;;;;10501836;28;19930;-85
2021/03/05 22:44:57;;;;;;;;;;;-0.50;99.90;;;;;;10505574;28;20283;-85
2021/03/05 22:49:59;;;;;;;;;;;-0.50;99.90;;;;;;10514086;28;20298;-84
2021/03/05 22:55:12;;;;;;;;;;;1.30;99.90;;;;;;10505912;28;19924;-85
2021/03/05 23:00:15;;;;;;;;;;;-0.50;99.90;;;;;;10498074;28;20019;-85
2021/03/05 23:05:16;;;;;;;;;;;-0.70;99.90;;;;;;10503561;28;19931;-85
2021/03/05 23:10:19;;;;;;;;;;;-0.60;99.90;;;;;;10505407;28;19927;-85
2021/03/05 23:15:21;;;;;;;;;;;-0.70;99.90;;;;;;10540355;28;19924;-85
2021/03/05 23:20:24;;;;;;;;;;;-0.70;99.90;;;;;;10492907;28;20027;-85
2021/03/05 23:25:34;;;;;;;;;;;-0.80;99.90;;;;;;10481926;28;19935;-85
2021/03/05 23:30:37;;;;;;;;;;;-0.70;99.90;;;;;;10478853;28;20341;-84
2021/03/05 23:35:38;;;;;;;;;;;-0.80;99.90;;;;;;10462163;28;20322;-85
2021/03/05 23:40:42;;;;;;;;;;;-0.80;99.90;;;;;;10478052;28;20342;-85
2021/03/05 23:45:44;;;;;;;;;;;-0.90;99.90;;;;;;10496391;28;20355;-85
